Time;durP1;ratioP1;P1;durP2;ratioP2;P2;SDS_P1;SDS_P2;PMS_P1;PMS_P2;Temp;Humidity;BMP_temperature;BMP_pressure;BME280_temperature;BME280_humidity;BME280_pressure;Samples;Min_cycle;Max_cycle;Signal;HPM_P1;HPM_P2
2023/06/29 00:02:04;;;;;;;5.05;1.52;;;;;;;22.46;63.41;101691.75;5071089;28;20017;-80
2023/06/29 00:04:32;;;;;;;0.20;0.20;;;;;;;22.45;63.10;101696.31;5070858;28;20029;-81
2023/06/29 00:07:02;;;;;;;0.10;0.10;;;;;;;22.47;63.08;101688.13;5082383;28;20471;-80
2023/06/29 00:09:29;;;;;;;0.50;0.47;;;;;;;22.46;63.10;101691.75;5086276;28;20569;-79
2023/06/29 00:11:55;;;;;;;0.47;0.47;;;;;;;22.46;63.11;101691.75;5083344;28;20374;-82
2023/06/29 00:14:21;;;;;;;0.10;0.10;;;;;;;22.46;63.10;101692.63;5077043;28;20021;-82
2023/06/29 00:16:50;;;;;;;0.17;0.17;;;;;;;22.47;63.23;101693.50;5096135;22;20957;-80
2023/06/29 00:19:17;;;;;;;0.25;0.25;;;;;;;22.46;63.23;101691.75;5054129;28;20025;-81
2023/06/29 00:21:46;;;;;;;0.28;0.28;;;;;;;22.46;63.53;101692.63;5052475;28;20538;-79
2023/06/29 00:24:12;;;;;;;0.47;0.47;;;;;;;22.45;63.11;101693.59;5056700;28;20040;-80
2023/06/29 00:26:38;;;;;;;0.73;0.73;;;;;;;22.47;63.37;101693.50;5052528;28;20097;-80
2023/06/29 00:29:05;;;;;;;0.50;0.50;;;;;;;22.46;62.98;101691.75;5052071;28;20036;-79
2023/06/29 00:31:31;;;;;;;0.10;0.10;;;;;;;22.46;63.38;101691.75;5053718;28;20107;-79
2023/06/29 00:33:57;;;;;;;1.13;1.10;;;;;;;22.45;62.76;101690.91;5053397;28;20344;-79
2023/06/29 00:36:23;;;;;;;0.45;0.45;;;;;;;22.46;62.89;101691.75;5055069;28;20029;-80
2023/06/29 00:38:49;;;;;;;0.10;0.10;;;;;;;22.46;63.14;101689.06;5052389;28;20029;-81
2023/06/29 00:41:16;;;;;;;0.10;0.10;;;;;;;22.47;63.08;101682.72;5052779;28;20025;-81
2023/06/29 00:43:43;;;;;;;0.32;0.30;;;;;;;22.46;63.02;101680.97;5046469;28;20060;-80
2023/06/29 00:46:12;;;;;;;0.30;0.30;;;;;;;22.46;62.82;101681.81;5048535;28;20436;-78
2023/06/29 00:48:39;;;;;;;0.65;0.65;;;;;;;22.46;62.71;101675.56;5049776;28;20095;-78
2023/06/29 00:51:05;;;;;;;1.02;1.02;;;;;;;22.45;62.92;101674.72;5052001;28;20158;-78
2023/06/29 00:53:32;;;;;;;0.47;0.47;;;;;;;22.46;63.16;101670.16;5051756;28;20036;-78
2023/06/29 00:56:00;;;;;;;0.95;0.95;;;;;;;22.46;63.35;101667.47;5056924;28;20182;-78
2023/06/29 00:58:27;;;;;;;0.52;0.52;;;;;;;22.47;62.75;101666.50;5057823;28;20047;-77
2023/06/29 01:00:53;;;;;;;0.40;0.40;;;;;;;22.46;62.90;101659.38;5054228;28;20037;-78
2023/06/29 01:03:20;;;;;;;0.63;0.63;;;;;;;22.47;63.11;101658.41;5053162;28;20039;-78
2023/06/29 01:05:47;;;;;;;0.50;0.50;;;;;;;22.48;62.79;101662.84;5053963;28;20033;-78
2023/06/29 01:08:19;;;;;;;1.17;0.35;;;;;;;22.49;62.73;101656.47;5050661;28;20025;-79
2023/06/29 01:10:47;;;;;;;0.10;0.10;;;;;;;22.47;62.84;101650.31;5052117;28;20037;-78
2023/06/29 01:13:18;;;;;;;0.10;0.10;;;;;;;22.49;63.22;101653.78;5049569;28;20495;-77
2023/06/29 01:15:46;;;;;;;0.22;0.22;;;;;;;22.47;62.73;101653.00;5052476;28;20041;-77
2023/06/29 01:18:13;;;;;;;0.30;0.30;;;;;;;22.44;63.21;101655.88;5050522;28;20021;-78
2023/06/29 01:20:41;;;;;;;1.10;1.05;;;;;;;22.44;62.99;101655.88;5050650;28;20021;-78
2023/06/29 01:25:43;;;;;;;2.83;1.02;;;;;;;22.27;63.89;101644.19;5111194;27;1262323;-79
2023/06/29 01:28:09;;;;;;;0.63;0.63;;;;;;;22.40;63.73;101644.38;5117963;28;20507;-80
2023/06/29 01:30:39;;;;;;;0.47;0.40;;;;;;;22.41;63.80;101643.41;5109053;28;20027;-80
2023/06/29 01:33:07;;;;;;;0.10;0.10;;;;;;;22.42;63.57;101642.47;5110311;28;20142;-80
2023/06/29 01:35:33;;;;;;;0.68;0.50;;;;;;;22.42;63.80;101645.16;5112818;28;20035;-80
2023/06/29 01:38:06;;;;;;;0.28;0.28;;;;;;;22.42;63.53;101642.47;5117921;28;20217;-80
2023/06/29 01:40:35;;;;;;;0.05;0.05;;;;;;;22.41;63.57;101638.00;5113567;28;20061;-79
2023/06/29 01:43:02;;;;;;;0.00;0.00;;;;;;;22.42;63.51;101641.59;5113048;28;20512;-80
2023/06/29 01:45:29;;;;;;;0.10;0.10;;;;;;;22.42;63.86;101630.81;5112255;28;20037;-78
2023/06/29 01:47:57;;;;;;;0.20;0.20;;;;;;;22.41;63.94;101631.75;5108622;28;20449;-80
2023/06/29 01:50:24;;;;;;;0.15;0.15;;;;;;;22.39;63.89;101628.28;5111726;28;20078;-80
2023/06/29 01:52:50;;;;;;;0.10;0.10;;;;;;;22.39;64.01;101617.47;5113036;28;20028;-79
2023/06/29 01:55:16;;;;;;;0.40;0.40;;;;;;;22.38;63.89;101624.72;5112000;28;20039;-77
2023/06/29 01:57:43;;;;;;;0.20;0.20;;;;;;;22.38;64.04;101630.09;5111004;28;20031;-78
2023/06/29 02:00:09;;;;;;;0.10;0.10;;;;;;;22.40;63.90;101621.91;5108508;28;20024;-79
2023/06/29 02:02:35;;;;;;;0.32;0.32;;;;;;;22.40;63.88;101619.22;5111416;28;20036;-80
2023/06/29 02:05:01;;;;;;;0.35;0.35;;;;;;;22.40;64.08;101628.16;5112728;28;20036;-80
2023/06/29 02:07:28;;;;;;;0.50;0.50;;;;;;;22.39;64.06;101618.34;5111739;28;20023;-80
2023/06/29 02:09:54;;;;;;;0.68;0.68;;;;;;;22.38;64.13;101616.59;5109720;28;20179;-80
2023/06/29 02:12:20;;;;;;;0.20;0.20;;;;;;;22.38;64.06;101613.03;5114546;28;20030;-80
2023/06/29 02:14:46;;;;;;;1.13;1.13;;;;;;;22.38;64.21;101618.41;5098324;28;20035;-80
2023/06/29 02:17:12;;;;;;;0.20;0.20;;;;;;;22.38;64.26;101615.72;5114628;28;20446;-80
2023/06/29 02:19:38;;;;;;;0.28;0.28;;;;;;;22.35;64.42;101610.47;5104468;28;20066;-77
2023/06/29 02:22:04;;;;;;;0.38;0.38;;;;;;;22.33;64.25;101607.88;5105320;28;20087;-79
2023/06/29 02:24:30;;;;;;;0.30;0.30;;;;;;;22.31;64.72;101601.69;5123842;28;20038;-80
2023/06/29 02:26:57;;;;;;;0.68;0.68;;;;;;;22.30;64.50;101600.78;5114085;27;20027;-79
2023/06/29 02:29:23;;;;;;;0.10;0.10;;;;;;;22.27;64.69;101595.59;5105292;28;20047;-79
2023/06/29 02:31:49;;;;;;;0.20;0.20;;;;;;;22.27;64.88;101595.59;5111079;28;20085;-79
2023/06/29 02:34:16;;;;;;;0.10;0.10;;;;;;;22.26;65.38;101598.38;5112388;28;20036;-80
2023/06/29 02:36:42;;;;;;;0.57;0.57;;;;;;;22.23;65.07;101599.44;5091182;28;20024;-80
2023/06/29 02:39:08;;;;;;;0.10;0.10;;;;;;;22.23;65.02;101598.53;5093479;28;21232;-80
2023/06/29 02:41:34;;;;;;;0.75;0.75;;;;;;;22.19;65.29;101589.75;5102092;28;20028;-79
2023/06/29 02:44:00;;;;;;;1.02;1.02;;;;;;;22.18;64.51;101590.72;5104446;28;20124;-79
2023/06/29 02:46:26;;;;;;;0.20;0.20;;;;;;;22.17;65.37;101590.78;5091382;28;20542;-80
2023/06/29 02:48:52;;;;;;;0.10;0.10;;;;;;;22.16;65.15;101587.25;5082574;28;20032;-79
2023/06/29 02:51:18;;;;;;;0.10;0.10;;;;;;;22.15;65.24;101585.50;5094767;28;20075;-80
2023/06/29 02:53:44;;;;;;;0.77;0.77;;;;;;;22.14;65.33;101586.44;5103406;28;20036;-77
2023/06/29 02:56:11;;;;;;;0.30;0.30;;;;;;;22.12;65.64;101580.28;5098193;28;20078;-78
2023/06/29 02:58:37;;;;;;;0.98;0.98;;;;;;;22.11;65.66;101583.94;5093964;28;20055;-80
2023/06/29 03:01:03;;;;;;;0.75;0.75;;;;;;;22.10;65.59;101582.19;5084921;28;20514;-80
2023/06/29 03:03:29;;;;;;;0.63;0.63;;;;;;;22.12;65.49;101580.28;5103639;28;20225;-80
2023/06/29 03:05:55;;;;;;;0.38;0.38;;;;;;;22.10;65.65;101571.41;5095591;28;20503;-80
2023/06/29 03:08:21;;;;;;;0.40;0.40;;;;;;;22.08;66.08;101574.19;5094627;28;20035;-80
2023/06/29 03:10:47;;;;;;;0.43;0.43;;;;;;;22.08;65.52;101579.59;5092618;28;20116;-79
2023/06/29 03:13:13;;;;;;;2.28;2.17;;;;;;;22.05;66.13;101573.50;5099364;28;20107;-78
2023/06/29 03:15:39;;;;;;;0.35;0.35;;;;;;;22.04;65.57;101569.91;5090930;28;20036;-78
2023/06/29 03:18:05;;;;;;;1.65;1.55;;;;;;;22.03;65.66;101570.00;5091227;28;20557;-79
2023/06/29 03:20:31;;;;;;;0.98;0.85;;;;;;;22.01;66.03;101562.00;5087782;28;20377;-79
2023/06/29 03:22:57;;;;;;;6.03;0.80;;;;;;;21.97;66.12;101561.31;5094208;28;20034;-78
2023/06/29 03:25:23;;;;;;;0.13;0.13;;;;;;;21.98;65.74;101563.06;5091816;28;20077;-79
2023/06/29 03:27:49;;;;;;;1.20;1.20;;;;;;;21.95;65.99;101562.34;5089436;28;20036;-79
2023/06/29 03:30:16;;;;;;;0.57;0.50;;;;;;;21.96;65.61;101558.69;5093213;28;20040;-79
2023/06/29 03:32:42;;;;;;;0.30;0.30;;;;;;;21.92;66.03;101551.72;5090358;28;20024;-80
2023/06/29 03:35:08;;;;;;;0.32;0.32;;;;;;;21.94;65.73;101555.22;5106969;28;20035;-79
2023/06/29 03:37:34;;;;;;;0.30;0.30;;;;;;;21.93;65.50;101559.75;5104575;28;20047;-80
2023/06/29 03:40:00;;;;;;;0.60;0.60;;;;;;;21.92;65.96;101549.91;5090830;28;20093;-80
2023/06/29 03:42:27;;;;;;;0.20;0.20;;;;;;;21.90;66.22;101546.41;5106142;28;20031;-80
2023/06/29 03:44:53;;;;;;;0.30;0.30;;;;;;;21.91;65.97;101556.25;5092378;28;20029;-79
2023/06/29 03:47:19;;;;;;;0.28;0.28;;;;;;;21.91;65.81;101550.00;5095607;28;20437;-80
2023/06/29 03:49:45;;;;;;;1.40;1.30;;;;;;;21.91;65.50;101544.59;5090844;28;20020;-80
2023/06/29 03:52:11;;;;;;;0.20;0.20;;;;;;;21.90;66.09;101551.81;5088042;28;20072;-80
2023/06/29 03:54:37;;;;;;;1.55;1.48;;;;;;;21.92;65.53;101547.22;5100914;28;20307;-80
2023/06/29 03:57:03;;;;;;;0.45;0.45;;;;;;;21.91;65.85;101545.47;5089417;28;20024;-80
2023/06/29 03:59:29;;;;;;;0.90;0.90;;;;;;;21.90;66.08;101543.72;5099892;28;20016;-80
2023/06/29 04:01:55;;;;;;;0.43;0.43;;;;;;;21.91;65.95;101544.59;5086492;28;20077;-80
2023/06/29 04:04:21;;;;;;;0.77;0.77;;;;;;;21.89;66.14;101552.75;5091077;28;20085;-80
2023/06/29 04:06:47;;;;;;;0.57;0.57;;;;;;;21.88;65.68;101548.34;5087394;28;20033;-80
2023/06/29 04:09:13;;;;;;;0.47;0.47;;;;;;;21.88;65.89;101542.06;5091006;28;20032;-80
2023/06/29 04:11:40;;;;;;;0.50;0.50;;;;;;;21.87;66.38;101535.81;5089882;28;20032;-80
2023/06/29 04:14:06;;;;;;;0.82;0.55;;;;;;;21.91;65.95;101534.66;5093407;28;20032;-80
2023/06/29 04:16:32;;;;;;;0.20;0.20;;;;;;;21.94;65.98;101533.63;5095841;28;20092;-79
2023/06/29 04:18:58;;;;;;;0.50;0.50;;;;;;;21.94;66.04;101534.50;5084212;28;20032;-80
2023/06/29 04:21:24;;;;;;;0.95;0.95;;;;;;;21.93;66.04;101540.88;5100015;28;20487;-80
2023/06/29 04:23:50;;;;;;;1.20;0.80;;;;;;;21.91;66.05;101537.38;5091174;28;20079;-80
2023/06/29 04:26:16;;;;;;;1.45;1.38;;;;;;;21.91;66.13;101537.38;5101059;28;20308;-80
2023/06/29 04:28:44;;;;;;;0.65;0.65;;;;;;;21.86;66.48;101533.19;5101509;28;20024;-80
2023/06/29 04:31:11;;;;;;;0.90;0.90;;;;;;;21.88;66.18;101537.56;5083648;28;20077;-80
2023/06/29 04:33:38;;;;;;;0.22;0.22;;;;;;;21.90;66.14;101538.31;5091575;28;20135;-79
2023/06/29 04:36:04;;;;;;;0.63;0.63;;;;;;;21.90;66.18;101532.94;5088362;28;20028;-80
2023/06/29 04:38:31;;;;;;;0.32;0.32;;;;;;;21.92;65.82;101533.72;5098609;28;20032;-80
2023/06/29 04:41:04;;;;;;;0.65;0.65;;;;;;;21.94;65.96;101539.91;5088116;28;20036;-80
2023/06/29 04:43:31;;;;;;;0.52;0.52;;;;;;;21.96;65.93;101531.72;5098652;28;20119;-80
2023/06/29 04:45:59;;;;;;;0.15;0.15;;;;;;;21.98;66.05;101535.19;5099912;28;20042;-79
2023/06/29 04:48:29;;;;;;;0.75;0.75;;;;;;;21.93;66.31;101526.47;5089985;28;20024;-80
2023/06/29 04:51:04;;;;;;;0.10;0.10;;;;;;;21.95;66.26;101521.88;5097480;28;20060;-80
2023/06/29 04:53:32;;;;;;;1.13;0.85;;;;;;;21.98;66.26;101527.97;5089713;28;20054;-80
2023/06/29 04:55:59;;;;;;;0.35;0.35;;;;;;;22.01;66.27;101528.72;5092108;28;20082;-77
2023/06/29 04:58:25;;;;;;;1.90;1.73;;;;;;;22.01;66.12;101526.03;5084944;28;20039;-76
2023/06/29 05:00:51;;;;;;;1.30;0.77;;;;;;;21.99;66.25;101523.44;5088173;28;20055;-77
2023/06/29 05:03:17;;;;;;;1.73;1.33;;;;;;;22.04;65.65;101528.56;5087419;28;20058;-78
2023/06/29 05:05:44;;;;;;;0.28;0.28;;;;;;;22.00;65.90;101525.19;5085973;28;20051;-78
2023/06/29 05:08:10;;;;;;;0.80;0.68;;;;;;;22.05;65.69;101524.94;5099638;28;20035;-79
2023/06/29 05:10:36;;;;;;;0.10;0.10;;;;;;;22.06;65.56;101529.38;5101503;28;20024;-79
2023/06/29 05:13:02;;;;;;;1.50;1.40;;;;;;;22.07;65.77;101529.28;5089033;28;20021;-80
2023/06/29 05:15:28;;;;;;;0.80;0.80;;;;;;;22.10;65.62;101528.22;5097196;28;20028;-79
2023/06/29 05:17:55;;;;;;;1.45;1.38;;;;;;;22.03;65.54;101527.72;5088902;28;20035;-79
2023/06/29 05:20:21;;;;;;;0.80;0.80;;;;;;;22.10;65.25;101522.81;5096329;28;20503;-79
2023/06/29 05:22:47;;;;;;;6.65;1.30;;;;;;;22.08;65.38;101524.72;5088813;28;20115;-79
2023/06/29 05:25:14;;;;;;;0.20;0.20;;;;;;;22.11;65.08;101521.88;5088016;28;20038;-80
2023/06/29 05:27:41;;;;;;;0.45;0.45;;;;;;;22.01;65.13;101523.34;5088342;28;20115;-80
2023/06/29 05:30:09;;;;;;;0.30;0.30;;;;;;;22.00;64.75;101517.09;5094419;28;20040;-79
2023/06/29 05:32:35;;;;;;;3.25;2.10;;;;;;;21.99;64.69;101515.34;5085505;28;20052;-79
2023/06/29 05:35:02;;;;;;;0.95;0.95;;;;;;;21.99;64.50;101509.94;5088509;28;20095;-79
2023/06/29 05:37:30;;;;;;;0.65;0.50;;;;;;;21.91;64.67;101512.22;5087713;28;20029;-79
2023/06/29 05:39:56;;;;;;;0.80;0.80;;;;;;;21.90;64.56;101515.88;5096876;28;20498;-80
2023/06/29 05:42:23;;;;;;;1.95;1.48;;;;;;;21.88;64.72;101513.28;5098502;28;20024;-78
2023/06/29 05:44:49;;;;;;;0.90;0.75;;;;;;;21.94;64.50;101512.94;5092637;28;20024;-78
2023/06/29 05:47:16;;;;;;;3.67;3.25;;;;;;;21.95;64.40;101511.94;5092921;28;20063;-79
2023/06/29 05:49:43;;;;;;;0.68;0.68;;;;;;;22.05;64.22;101516.81;5082137;28;20115;-77
2023/06/29 05:52:09;;;;;;;0.50;0.50;;;;;;;22.07;64.15;101517.59;5095222;28;20058;-78
2023/06/29 05:54:35;;;;;;;0.73;0.73;;;;;;;22.13;64.17;101507.31;5096140;28;20032;-78
2023/06/29 05:57:01;;;;;;;0.98;0.98;;;;;;;22.16;64.10;101516.19;5086153;28;20027;-79
2023/06/29 05:59:29;;;;;;;1.45;1.45;;;;;;;22.15;63.82;101520.72;5097338;28;20032;-77
2023/06/29 06:01:56;;;;;;;1.20;1.00;;;;;;;22.19;63.78;101516.88;5088392;28;20051;-76
2023/06/29 06:04:22;;;;;;;2.20;1.17;;;;;;;22.22;63.76;101519.41;5091113;28;20017;-77
2023/06/29 06:06:48;;;;;;;2.40;1.65;;;;;;;22.22;63.53;101522.09;5091169;28;20086;-78
2023/06/29 06:09:14;;;;;;;2.00;1.70;;;;;;;22.21;63.46;101522.22;5092080;28;20032;-79
2023/06/29 06:11:40;;;;;;;2.17;2.00;;;;;;;22.16;63.55;101530.56;5082199;28;20032;-79
2023/06/29 06:14:06;;;;;;;0.82;0.82;;;;;;;22.16;63.60;101522.47;5110152;28;20175;-79
2023/06/29 06:16:32;;;;;;;0.22;0.22;;;;;;;22.17;63.54;101518.81;5096424;28;20040;-79
2023/06/29 06:18:58;;;;;;;1.17;1.15;;;;;;;22.03;63.84;101522.31;5116287;28;20035;-79
2023/06/29 06:21:24;;;;;;;0.60;0.60;;;;;;;22.10;63.85;101529.06;5090834;28;20118;-80
2023/06/29 06:23:53;;;;;;;1.48;1.27;;;;;;;22.05;63.87;101522.22;5090421;28;20098;-79
2023/06/29 06:26:19;;;;;;;1.00;1.00;;;;;;;22.17;63.86;101518.81;5099897;28;20512;-81
2023/06/29 06:28:45;;;;;;;0.63;0.63;;;;;;;22.22;63.90;101516.72;5108560;28;20027;-80
2023/06/29 06:31:12;;;;;;;1.45;1.05;;;;;;;22.29;63.96;101520.78;5095674;28;20047;-80
2023/06/29 06:33:39;;;;;;;1.35;1.00;;;;;;;22.37;63.37;101514.06;5115158;28;20016;-80
2023/06/29 06:36:06;;;;;;;1.38;1.33;;;;;;;22.43;63.41;101519.13;5113897;28;20043;-80
2023/06/29 06:38:32;;;;;;;1.38;1.27;;;;;;;22.43;63.29;101517.31;5111090;28;20087;-80
2023/06/29 06:40:58;;;;;;;1.20;1.15;;;;;;;22.48;63.22;101521.56;5105494;28;20043;-81
2023/06/29 06:43:24;;;;;;;0.57;0.57;;;;;;;22.52;63.11;101515.88;5103060;28;20024;-81
2023/06/29 06:45:52;;;;;;;0.90;0.90;;;;;;;22.52;62.82;101515.00;5093904;28;20517;-81
2023/06/29 06:48:18;;;;;;;1.30;1.20;;;;;;;22.51;62.77;101516.84;5103961;28;20115;-80
2023/06/29 06:50:45;;;;;;;1.05;1.05;;;;;;;22.51;62.84;101516.00;5093497;28;20599;-79
2023/06/29 06:53:11;;;;;;;0.30;0.30;;;;;;;22.48;62.93;101506.25;5098467;28;20150;-80
2023/06/29 06:55:37;;;;;;;0.40;0.40;;;;;;;22.59;62.90;101517.25;5098401;28;20028;-80
2023/06/29 06:58:03;;;;;;;0.30;0.30;;;;;;;22.53;62.83;101517.63;5107328;28;20024;-80
2023/06/29 07:00:29;;;;;;;0.77;0.77;;;;;;;22.56;62.71;101513.88;5092548;28;20044;-80
2023/06/29 07:02:55;;;;;;;0.90;0.90;;;;;;;22.60;62.79;101519.00;5098604;28;20028;-79
2023/06/29 07:05:22;;;;;;;3.55;1.65;;;;;;;22.66;62.56;101519.59;5111106;28;20028;-80
2023/06/29 07:07:51;;;;;;;0.63;0.63;;;;;;;22.73;62.78;101519.13;5097628;28;20059;-80
2023/06/29 07:10:17;;;;;;;2.22;2.05;;;;;;;22.81;62.49;101512.41;5098718;28;20024;-80
2023/06/29 07:12:43;;;;;;;1.42;1.35;;;;;;;22.75;62.51;101514.50;5099200;28;20107;-79
2023/06/29 07:15:09;;;;;;;1.02;0.98;;;;;;;22.96;62.47;101510.59;5098802;28;20030;-80
2023/06/29 07:17:35;;;;;;;0.98;0.93;;;;;;;23.06;62.37;101517.16;5097731;28;20399;-80
2023/06/29 07:20:03;;;;;;;1.02;1.02;;;;;;;23.14;62.31;101525.66;5096089;28;20036;-79
2023/06/29 07:22:30;;;;;;;1.00;1.00;;;;;;;23.21;61.63;101529.72;5105289;28;20053;-80
2023/06/29 07:24:57;;;;;;;2.33;1.60;;;;;;;23.16;61.65;101518.31;5109774;28;20060;-80
2023/06/29 07:27:23;;;;;;;1.95;1.85;;;;;;;23.15;61.50;101516.56;5100396;28;20024;-80
2023/06/29 07:29:49;;;;;;;0.68;0.68;;;;;;;23.31;61.42;101526.47;5104411;28;20053;-79
2023/06/29 07:32:15;;;;;;;1.60;1.52;;;;;;;23.35;61.40;101518.06;5104831;28;20054;-79
2023/06/29 07:34:41;;;;;;;0.50;0.50;;;;;;;23.30;60.97;101525.56;5102262;28;20035;-79
2023/06/29 07:37:08;;;;;;;1.10;1.00;;;;;;;23.20;60.88;101522.59;5100804;28;20091;-80
2023/06/29 07:39:34;;;;;;;0.70;0.70;;;;;;;23.27;60.69;101512.25;5103981;28;20036;-79
2023/06/29 07:42:00;;;;;;;4.57;1.55;;;;;;;23.30;60.88;101513.91;5098332;28;20026;-80
2023/06/29 07:44:27;;;;;;;4.18;1.83;;;;;;;23.31;60.75;101508.38;5104273;28;20024;-79
2023/06/29 07:46:53;;;;;;;3.67;1.05;;;;;;;23.25;60.51;101512.38;5099906;28;20523;-79
2023/06/29 07:49:19;;;;;;;1.20;1.10;;;;;;;23.46;60.65;101513.78;5100741;28;20035;-79
2023/06/29 07:51:45;;;;;;;3.40;1.20;;;;;;;23.44;60.54;101508.50;5110945;28;20142;-80
2023/06/29 07:54:12;;;;;;;2.25;2.15;;;;;;;23.68;60.83;101503.31;5117719;28;20111;-80
2023/06/29 07:56:38;;;;;;;2.30;1.55;;;;;;;23.88;60.20;101504.72;5109278;28;20078;-82
2023/06/29 07:59:04;;;;;;;1.17;1.15;;;;;;;24.01;59.89;101503.94;5101550;28;20028;-80
2023/06/29 08:01:34;;;;;;;1.35;0.93;;;;;;;24.03;59.43;101508.28;5110862;28;20032;-80
2023/06/29 08:04:00;;;;;;;2.25;0.82;;;;;;;24.19;59.32;101497.28;5104873;28;20016;-80
2023/06/29 08:06:26;;;;;;;0.85;0.85;;;;;;;24.22;58.89;101497.09;5097253;28;20040;-82
2023/06/29 08:08:52;;;;;;;2.85;1.55;;;;;;;24.28;58.59;101489.53;5099176;28;20028;-81
2023/06/29 08:11:18;;;;;;;1.67;1.05;;;;;;;24.31;58.81;101489.31;5098243;28;20032;-80
2023/06/29 08:13:44;;;;;;;0.85;0.60;;;;;;;24.25;58.18;101500.56;5110037;28;20031;-81
2023/06/29 08:16:10;;;;;;;1.15;1.05;;;;;;;24.28;58.21;101484.97;5101795;28;20048;-80
2023/06/29 08:18:37;;;;;;;4.75;1.02;;;;;;;24.32;58.25;101491.03;5094773;28;20051;-80
2023/06/29 08:21:03;;;;;;;6.80;0.98;;;;;;;24.42;58.52;101485.88;5111084;28;20453;-80
2023/06/29 08:23:32;;;;;;;1.83;1.15;;;;;;;24.49;58.33;101482.63;5118730;28;20023;-80
2023/06/29 08:25:58;;;;;;;5.30;2.00;;;;;;;24.56;57.95;101485.78;5097985;28;20043;-80
2023/06/29 08:28:24;;;;;;;1.50;1.35;;;;;;;24.75;57.60;101480.00;5106807;28;20027;-81
2023/06/29 08:30:51;;;;;;;0.75;0.75;;;;;;;24.81;56.55;101494.94;5114011;28;20079;-81
2023/06/29 08:33:17;;;;;;;0.32;0.32;;;;;;;24.76;57.11;101484.44;5104696;28;20494;-79
2023/06/29 08:35:43;;;;;;;1.92;1.75;;;;;;;24.84;57.14;101484.75;5094868;28;20508;-81
2023/06/29 08:38:09;;;;;;;1.02;1.02;;;;;;;24.87;57.42;101483.66;5110190;28;20016;-81
2023/06/29 08:40:38;;;;;;;0.88;0.88;;;;;;;24.83;56.80;101491.13;5120415;28;20085;-82
2023/06/29 08:43:04;;;;;;;0.90;0.77;;;;;;;24.83;57.29;101485.72;5117200;28;20020;-80
2023/06/29 08:45:30;;;;;;;4.68;1.10;;;;;;;24.73;56.77;101478.38;5107084;28;20055;-80
2023/06/29 08:47:56;;;;;;;2.05;1.95;;;;;;;24.75;56.49;101470.97;5103962;28;20032;-80
2023/06/29 08:50:26;;;;;;;1.10;0.70;;;;;;;24.64;57.27;101469.00;5102262;28;20032;-79
2023/06/29 08:52:54;;;;;;;2.50;2.30;;;;;;;24.62;57.00;101462.81;5093377;28;20029;-80
2023/06/29 08:55:20;;;;;;;1.20;1.20;;;;;;;24.58;57.62;101470.28;5095543;28;20035;-81
2023/06/29 08:57:46;;;;;;;0.52;0.52;;;;;;;24.67;57.54;101474.22;5096058;28;20038;-80
2023/06/29 09:00:13;;;;;;;4.28;2.28;;;;;;;24.75;57.48;101477.28;5096011;28;20032;-80
2023/06/29 09:02:40;;;;;;;1.48;1.40;;;;;;;24.68;57.88;101475.97;5091882;28;20036;-81
2023/06/29 09:05:07;;;;;;;2.15;1.88;;;;;;;24.75;57.46;101477.28;5108929;28;20023;-81
2023/06/29 09:07:34;;;;;;;0.68;0.68;;;;;;;24.71;57.65;101486.56;5118934;28;20074;-79
2023/06/29 09:10:00;;;;;;;0.60;0.40;;;;;;;24.70;57.73;101476.75;5116541;28;20063;-78
2023/06/29 09:12:27;;;;;;;0.68;0.68;;;;;;;24.74;57.78;101480.09;5099441;28;20032;-77
2023/06/29 09:14:57;;;;;;;0.30;0.30;;;;;;;24.74;57.53;101489.09;5086066;28;20027;-78
2023/06/29 09:17:23;;;;;;;1.42;1.42;;;;;;;24.61;57.61;101485.47;5101051;28;20114;-80
2023/06/29 09:19:54;;;;;;;1.65;1.08;;;;;;;24.65;57.40;101481.59;5095837;28;20042;-80
2023/06/29 09:22:21;;;;;;;0.60;0.60;;;;;;;24.70;57.55;101482.16;5095967;28;20487;-80
2023/06/29 09:24:48;;;;;;;0.77;0.77;;;;;;;24.71;57.01;101492.00;5094353;28;20115;-80
2023/06/29 09:27:14;;;;;;;0.73;0.73;;;;;;;24.82;57.40;101488.53;5100881;28;20073;-80
2023/06/29 09:29:48;;;;;;;1.58;0.80;;;;;;;24.80;56.79;101488.66;5094079;28;20032;-79
2023/06/29 09:32:14;;;;;;;0.95;0.95;;;;;;;24.71;56.65;101497.41;5089111;28;20036;-80
2023/06/29 09:34:46;;;;;;;0.82;0.82;;;;;;;24.77;57.17;101488.00;5090231;28;20028;-79
2023/06/29 09:37:14;;;;;;;1.13;1.13;;;;;;;24.90;57.38;101479.88;5113059;28;20024;-79
2023/06/29 09:39:56;;;;;;;0.10;0.10;;;;;;;25.07;56.55;101484.09;5105318;28;20090;-80
2023/06/29 09:42:23;;;;;;;1.35;1.35;;;;;;;25.12;55.81;101484.63;5097873;28;20081;-80
2023/06/29 09:44:49;;;;;;;0.70;0.70;;;;;;;25.22;55.75;101485.69;5090719;28;20028;-80
2023/06/29 09:47:19;;;;;;;0.90;0.90;;;;;;;25.25;55.18;101479.22;5104613;28;20031;-80
2023/06/29 09:49:48;;;;;;;0.95;0.95;;;;;;;25.34;55.31;101475.81;5102678;28;20024;-80
2023/06/29 09:52:15;;;;;;;0.57;0.55;;;;;;;25.36;54.53;101479.31;5094149;28;20115;-80
2023/06/29 09:54:42;;;;;;;0.20;0.20;;;;;;;25.48;54.40;101473.00;5104826;28;20028;-81
2023/06/29 09:57:12;;;;;;;2.75;1.67;;;;;;;25.59;53.96;101480.34;5100407;28;20111;-80
2023/06/29 09:59:40;;;;;;;1.38;1.27;;;;;;;25.65;53.62;101471.75;5099339;28;20047;-78
2023/06/29 10:02:08;;;;;;;0.82;0.82;;;;;;;25.84;53.26;101473.09;5100915;28;20027;-81
2023/06/29 10:04:35;;;;;;;1.40;1.40;;;;;;;26.04;54.25;101468.88;5113328;27;20027;-81
2023/06/29 10:09:45;;;;;;;0.85;0.85;;;;;;;26.00;51.94;101470.09;5115617;27;20886;-80
2023/06/29 10:12:12;;;;;;;0.75;0.75;;;;;;;26.06;52.22;101469.66;5096907;28;20091;-80
2023/06/29 10:14:41;;;;;;;0.63;0.63;;;;;;;26.24;52.77;101471.94;5097275;28;20059;-80
2023/06/29 10:17:13;;;;;;;1.70;1.60;;;;;;;26.35;51.76;101465.69;5087763;28;20124;-80
2023/06/29 10:19:41;;;;;;;;;;;;;;;26.59;51.70;101460.19;5096769;28;20385;-80
2023/06/29 10:22:11;;;;;;;0.63;0.63;;;;;;;26.58;51.45;101453.91;5091979;28;19908;-80
2023/06/29 10:24:58;;;;;;;0.50;0.50;;;;;;;26.79;51.41;101456.81;5089446;28;20392;-79
2023/06/29 10:27:28;;;;;;;0.70;0.70;;;;;;;26.90;50.08;101463.25;5083925;28;20116;-79
2023/06/29 10:29:55;;;;;;;1.85;1.23;;;;;;;26.97;49.13;101453.59;5092576;28;20441;-78
2023/06/29 10:32:30;;;;;;;0.52;0.52;;;;;;;27.03;49.05;101453.13;5088932;28;20082;-77
2023/06/29 10:35:05;;;;;;;2.40;1.13;;;;;;;26.85;49.21;101450.00;5087655;28;20028;-80
2023/06/29 10:42:51;;;;;;;1.85;0.82;;;;;;;25.78;51.24;101460.88;5119092;27;20380;-79
2023/06/29 10:50:38;;;;;;;0.93;0.85;;;;;;;25.26;52.66;101470.97;5103213;27;20802;-79
2023/06/29 10:53:07;;;;;;;0.70;0.70;;;;;;;25.24;52.59;101461.22;5086719;28;20727;-80
2023/06/29 10:55:56;;;;;;;0.68;0.68;;;;;;;25.24;52.32;101455.78;5088947;28;20050;-80
2023/06/29 11:00:58;;;;;;;1.02;0.95;;;;;;;25.30;52.85;101455.34;5098276;27;20378;-81
2023/06/29 11:03:24;;;;;;;1.02;1.02;;;;;;;25.41;52.19;101449.13;5088546;28;20035;-80
2023/06/29 11:05:53;;;;;;;0.63;0.63;;;;;;;25.54;51.89;101446.41;5089904;28;20036;-79
2023/06/29 11:08:21;;;;;;;0.10;0.10;;;;;;;25.83;51.55;101446.91;5088807;28;20548;-80
2023/06/29 11:10:48;;;;;;;0.57;0.57;;;;;;;26.03;50.43;101439.13;5089118;28;20024;-80
2023/06/29 11:13:17;;;;;;;0.45;0.45;;;;;;;26.11;49.68;101450.31;5088504;28;20024;-80
2023/06/29 11:15:50;;;;;;;0.10;0.10;;;;;;;26.09;48.46;101435.97;5090496;28;20398;-81
2023/06/29 11:18:16;;;;;;;0.63;0.63;;;;;;;26.14;48.68;101437.38;5090046;28;20589;-80
2023/06/29 11:20:42;;;;;;;1.65;1.55;;;;;;;26.03;48.75;101437.25;5088672;28;20606;-78
2023/06/29 11:23:08;;;;;;;1.17;1.05;;;;;;;26.18;47.85;101442.53;5090059;28;20047;-80
2023/06/29 11:25:36;;;;;;;0.60;0.60;;;;;;;26.43;47.96;101433.34;5090793;28;20555;-79
2023/06/29 11:28:02;;;;;;;0.68;0.65;;;;;;;26.54;47.99;101438.81;5091617;28;20092;-78
2023/06/29 11:30:29;;;;;;;0.47;0.47;;;;;;;26.56;48.23;101436.84;5097744;28;20032;-80
2023/06/29 11:32:55;;;;;;;0.95;0.95;;;;;;;26.75;48.00;101446.28;5097798;28;20115;-79
2023/06/29 11:35:22;;;;;;;0.47;0.47;;;;;;;26.60;48.37;101440.19;5095468;28;20052;-78
2023/06/29 11:37:50;;;;;;;2.00;1.65;;;;;;;26.83;47.74;101440.25;5094564;28;20025;-80
2023/06/29 11:40:19;;;;;;;0.55;0.55;;;;;;;27.15;47.56;101444.94;5094039;28;20077;-80
2023/06/29 11:42:46;;;;;;;0.30;0.30;;;;;;;27.28;46.89;101435.66;5094574;28;20037;-78